Terminal Aerodrome Forecast
Issued by NWS

Home | Current Version | Previous Version | Text Only | Print | Product List | Glossary On
Versions: 1 2 3 4 5 6 7 8 9 10 11 12 13 14 15 16
527
FTUS46 KMTR 051737
TAFOAK
TAF
KOAK 051737Z 0518/0624 24008KT P6SM VCSH SCT018 BKN050
      TEMPO 0518/0521 BKN018 BKN050
     FM052100 26009KT P6SM VCSH SCT025 BKN060
     FM052300 27011KT P6SM VCSH SCT030 BKN080
     FM060500 26008KT P6SM VCSH BKN025 OVC060
     FM060700 23009KT P6SM VCSH BKN020 OVC050
     FM061200 22013KT P6SM VCSH BKN018 OVC040
     FM061700 20010KT P6SM VCSH SCT025 BKN050
     FM062100 24010KT P6SM VCSH SCT030 BKN060=

USA.gov is the U.S. government's official web portal to all federal, state and local government web resources and services.